createdAt,value
2022-11-11T00:03:25.107Z,7.15
2022-11-11T00:07:08.442Z,7.88
2022-11-11T00:10:50.165Z,5.43
2022-11-11T00:14:31.424Z,6.90
2022-11-11T00:18:31.029Z,4.20
2022-11-11T00:22:39.347Z,11.32
2022-11-11T00:30:23.167Z,8.65
2022-11-11T00:34:04.531Z,7.72
2022-11-11T00:37:49.399Z,9.13
2022-11-11T00:41:30.869Z,9.43
2022-11-11T00:45:12.615Z,8.57
2022-11-11T00:49:12.005Z,6.30
2022-11-11T00:52:54.891Z,7.95
2022-11-11T00:56:37.521Z,8.38
2022-11-11T01:00:19.393Z,6.28
2022-11-11T01:04:01.198Z,11.13
2022-11-11T01:07:42.686Z,6.95
2022-11-11T01:11:26.154Z,6.75
2022-11-11T01:15:08.603Z,8.82
2022-11-11T01:18:51.504Z,8.23
2022-11-11T01:22:32.881Z,5.43
2022-11-11T01:26:16.405Z,7.15
2022-11-11T01:29:59.358Z,5.28
2022-11-11T01:33:41.489Z,3.63
2022-11-11T01:37:23.194Z,5.43
2022-11-11T01:41:27.402Z,7.32
2022-11-11T01:45:42.505Z,7.72
2022-11-11T01:49:30.798Z,6.72
2022-11-11T01:53:12.503Z,4.80
2022-11-11T01:57:00.199Z,9.98
2022-11-11T02:00:42.360Z,9.70
2022-11-11T02:04:44.186Z,4.25
2022-11-11T02:08:35.269Z,4.40
2022-11-11T02:12:34.297Z,5.45
2022-11-11T02:16:16.686Z,9.20
2022-11-11T02:20:01.981Z,7.45
2022-11-11T02:23:47.774Z,5.07
2022-11-11T02:27:32.093Z,4.28
2022-11-11T02:31:14.540Z,6.18
2022-11-11T02:34:56.267Z,6.20
2022-11-11T02:38:38.190Z,5.63
2022-11-11T02:42:22.307Z,9.23
2022-11-11T02:46:06.437Z,7.88
2022-11-11T02:49:48.088Z,5.38
2022-11-11T02:53:30.065Z,4.30
2022-11-11T02:57:12.133Z,9.23
2022-11-11T03:00:53.471Z,4.68
2022-11-11T03:04:37.385Z,3.95
2022-11-11T03:08:20.153Z,6.50
2022-11-11T03:12:01.995Z,4.28
2022-11-11T03:15:44.061Z,2.72
2022-11-11T03:19:24.603Z,3.33
2022-11-11T03:23:09.460Z,6.32
2022-11-11T03:26:50.848Z,3.00
2022-11-11T03:30:32.200Z,4.05
2022-11-11T03:34:19.420Z,3.05
2022-11-11T03:38:24.664Z,6.07
2022-11-11T03:42:07.981Z,3.22
2022-11-11T03:45:49.911Z,3.40
2022-11-11T03:49:31.353Z,6.32
2022-11-11T03:53:13.741Z,5.15
2022-11-11T03:57:16.373Z,9.18
2022-11-11T04:00:59.186Z,2.78
2022-11-11T04:04:58.309Z,4.00
2022-11-11T04:08:57.235Z,2.20
2022-11-11T04:12:55.393Z,3.05
2022-11-11T04:16:38.264Z,8.18
2022-11-11T04:20:37.221Z,3.63
2022-11-11T04:24:37.765Z,5.45
2022-11-11T04:28:36.753Z,5.22
2022-11-11T04:32:38.380Z,4.72
2022-11-11T04:36:19.635Z,4.95
2022-11-11T04:40:18.879Z,6.72
2022-11-11T04:44:18.274Z,3.95
2022-11-11T04:48:02.838Z,3.22
2022-11-11T04:52:02.101Z,6.30
2022-11-11T04:56:02.806Z,3.80
2022-11-11T04:59:44.184Z,4.97
2022-11-11T05:03:27.952Z,6.55
2022-11-11T05:07:26.995Z,13.43
2022-11-11T05:11:08.701Z,6.05
2022-11-11T05:15:07.401Z,9.00
2022-11-11T05:19:07.092Z,5.72
2022-11-11T05:22:48.950Z,2.60
2022-11-11T05:26:32.010Z,4.60
2022-11-11T05:30:15.623Z,7.18
2022-11-11T05:33:58.561Z,7.93
2022-11-11T05:37:40.701Z,4.07
2022-11-11T05:41:21.973Z,4.38
2022-11-11T05:45:03.785Z,6.53
2022-11-11T05:48:59.327Z,10.18
2022-11-11T05:52:48.732Z,7.90
2022-11-11T05:56:30.139Z,15.25
2022-11-11T06:00:12.600Z,12.23
2022-11-11T06:03:53.995Z,8.73
2022-11-11T06:07:38.536Z,13.68
2022-11-11T06:11:21.561Z,12.82
2022-11-11T06:15:03.341Z,16.88
2022-11-11T06:18:44.641Z,7.55
2022-11-11T06:22:46.150Z,16.27
2022-11-11T06:26:28.931Z,28.13
2022-11-11T06:30:44.255Z,10.93
2022-11-11T06:34:12.853Z,13.65
2022-11-11T06:37:54.441Z,11.63
2022-11-11T06:41:37.632Z,9.38
2022-11-11T06:45:20.192Z,26.13
2022-11-11T06:49:01.425Z,20.85
2022-11-11T06:52:42.737Z,21.27
2022-11-11T06:56:24.246Z,20.63
2022-11-11T07:00:08.688Z,12.55
2022-11-11T07:03:50.267Z,16.95
2022-11-11T07:07:31.784Z,18.55
2022-11-11T07:11:18.655Z,12.57
2022-11-11T07:15:00.534Z,13.93
2022-11-11T07:18:43.269Z,9.13
2022-11-11T07:22:25.291Z,10.10
2022-11-11T07:26:06.876Z,10.60
2022-11-11T07:29:49.272Z,10.35
2022-11-11T07:33:30.773Z,7.18
2022-11-11T07:37:13.573Z,6.22
2022-11-11T07:40:54.908Z,24.38
2022-11-11T07:44:36.453Z,18.00
2022-11-11T07:48:18.374Z,17.92
2022-11-11T07:52:00.212Z,13.18
2022-11-11T07:55:43.161Z,12.57
2022-11-11T07:59:24.411Z,15.32
2022-11-11T08:03:08.785Z,12.90
2022-11-11T08:06:50.700Z,13.85
2022-11-11T08:10:32.245Z,8.48
2022-11-11T08:14:15.174Z,16.50
2022-11-11T08:17:56.663Z,16.38
2022-11-11T08:21:38.133Z,16.00
2022-11-11T08:25:19.665Z,16.65
2022-11-11T08:29:01.500Z,11.93
2022-11-11T08:32:44.424Z,19.08
2022-11-11T08:36:26.411Z,20.48
2022-11-11T08:40:09.386Z,16.10
2022-11-11T08:43:54.037Z,15.32
2022-11-11T08:47:35.380Z,16.15
2022-11-11T08:51:18.849Z,15.05
2022-11-11T08:55:00.791Z,12.68
2022-11-11T08:58:42.687Z,15.05
2022-11-11T09:02:23.876Z,12.52
2022-11-11T09:06:05.544Z,19.48
2022-11-11T09:09:48.284Z,11.48
2022-11-11T09:13:29.687Z,16.67
2022-11-11T09:17:11.390Z,9.95
2022-11-11T09:20:52.984Z,15.00
2022-11-11T09:24:34.401Z,19.83
2022-11-11T09:28:17.315Z,22.65
2022-11-11T09:31:59.010Z,24.92
2022-11-11T09:35:40.449Z,24.95
2022-11-11T09:39:21.898Z,25.90
2022-11-11T09:43:10.239Z,24.13
2022-11-11T09:47:02.650Z,18.85
2022-11-11T09:50:53.420Z,31.25
2022-11-11T09:54:42.196Z,18.80
2022-11-11T09:58:25.818Z,18.35
2022-11-11T10:02:20.835Z,16.08
2022-11-11T10:06:06.049Z,16.67
2022-11-11T10:09:55.018Z,22.92
2022-11-11T10:13:38.818Z,18.75
2022-11-11T10:17:38.473Z,22.88
2022-11-11T10:21:26.726Z,15.10
2022-11-11T10:25:20.765Z,16.77
2022-11-11T10:29:05.386Z,19.00
2022-11-11T10:32:53.721Z,17.50
2022-11-11T10:36:39.332Z,18.45
2022-11-11T10:40:25.811Z,18.25
2022-11-11T10:44:21.361Z,20.17
2022-11-11T10:48:09.087Z,22.05
2022-11-11T10:51:56.851Z,13.65
2022-11-11T10:55:44.367Z,17.52
2022-11-11T10:59:30.476Z,16.88
2022-11-11T11:03:18.206Z,22.90
2022-11-11T11:07:02.889Z,16.40
2022-11-11T11:10:48.363Z,12.57
2022-11-11T11:14:33.126Z,23.65
2022-11-11T11:18:18.758Z,18.52
2022-11-11T11:22:01.751Z,17.80
2022-11-11T11:25:53.829Z,13.27
2022-11-11T11:29:37.236Z,14.13
2022-11-11T11:33:20.035Z,16.65
2022-11-11T11:37:02.831Z,18.13
2022-11-11T11:40:50.673Z,16.30
2022-11-11T11:44:33.811Z,15.32
2022-11-11T11:48:32.211Z,15.00
2022-11-11T11:52:21.930Z,11.63
2022-11-11T11:56:14.661Z,10.88
2022-11-11T12:00:03.939Z,12.75
2022-11-11T12:04:07.572Z,19.30
2022-11-11T12:08:03.181Z,13.20
2022-11-11T12:11:55.923Z,12.02
2022-11-11T12:15:41.644Z,9.95
2022-11-11T12:19:46.457Z,9.20
2022-11-11T12:23:55.003Z,6.70
2022-11-11T12:27:45.989Z,8.60
2022-11-11T12:31:41.227Z,14.07
2022-11-11T12:35:45.001Z,12.32
2022-11-11T12:39:49.527Z,10.95
2022-11-11T12:43:39.485Z,13.52
2022-11-11T12:47:35.921Z,10.23
2022-11-11T12:51:28.698Z,8.18
2022-11-11T12:55:25.108Z,10.55
2022-11-11T12:59:18.219Z,14.30
2022-11-11T13:03:24.170Z,11.82
2022-11-11T13:07:33.954Z,13.88
2022-11-11T13:11:26.148Z,10.80
2022-11-11T13:15:21.305Z,8.27
2022-11-11T13:19:12.066Z,6.63
2022-11-11T13:22:56.749Z,10.65
2022-11-11T13:26:43.997Z,8.77
2022-11-11T13:30:42.942Z,14.80
2022-11-11T13:34:25.796Z,11.63
2022-11-11T13:38:14.420Z,10.95
2022-11-11T13:42:01.096Z,5.82
2022-11-11T13:45:44.788Z,10.10
2022-11-11T13:49:31.041Z,13.95
2022-11-11T13:53:26.209Z,13.23
2022-11-11T13:57:17.326Z,14.25
2022-11-11T14:01:01.640Z,22.05
2022-11-11T14:05:23.771Z,10.20
2022-11-11T14:09:08.684Z,8.25
2022-11-11T14:12:51.963Z,20.15
2022-11-11T14:17:05.889Z,15.93
2022-11-11T14:20:49.134Z,14.02
2022-11-11T14:24:40.466Z,35.33
2022-11-11T14:28:26.329Z,10.95
2022-11-11T14:32:39.794Z,11.68
2022-11-11T14:36:29.895Z,13.35
2022-11-11T14:40:26.080Z,12.07
2022-11-11T14:44:41.999Z,18.95
2022-11-11T14:48:59.585Z,10.85
2022-11-11T14:52:45.356Z,9.77
2022-11-11T14:56:29.794Z,11.30
2022-11-11T15:00:15.896Z,11.90
2022-11-11T15:03:57.941Z,26.70
2022-11-11T15:07:54.173Z,9.60
2022-11-11T15:11:44.880Z,20.55
2022-11-11T15:15:28.728Z,17.50
2022-11-11T15:19:24.576Z,25.13
2022-11-11T15:23:18.736Z,22.50
2022-11-11T15:27:10.489Z,41.40
2022-11-11T15:31:03.445Z,24.23
2022-11-11T15:34:51.717Z,25.13
2022-11-11T15:38:33.469Z,21.60
2022-11-11T15:42:29.272Z,20.98
2022-11-11T15:46:24.597Z,18.85
2022-11-11T15:50:18.804Z,26.35
2022-11-11T15:54:22.405Z,15.38
2022-11-11T15:58:17.630Z,25.63
2022-11-11T16:02:00.090Z,20.13
2022-11-11T16:05:43.972Z,21.75
2022-11-11T16:09:28.381Z,18.25
2022-11-11T16:13:17.148Z,25.80
2022-11-11T16:17:00.884Z,27.45
2022-11-11T16:20:47.299Z,19.23
2022-11-11T16:24:32.290Z,18.90
2022-11-11T16:28:16.075Z,19.85
2022-11-11T16:31:58.012Z,18.50
2022-11-11T16:35:41.778Z,13.80
2022-11-11T16:39:27.868Z,27.30
2022-11-11T16:43:29.652Z,13.02
2022-11-11T16:47:45.010Z,11.98
2022-11-11T16:51:41.547Z,17.20
2022-11-11T16:55:30.425Z,14.02
2022-11-11T16:59:17.131Z,22.77
2022-11-11T17:03:13.781Z,19.70
2022-11-11T17:06:59.427Z,12.75
2022-11-11T17:10:41.249Z,15.07
2022-11-11T17:14:24.204Z,18.52
2022-11-11T17:18:05.798Z,20.00
2022-11-11T17:21:47.558Z,11.15
2022-11-11T17:25:29.152Z,17.25
2022-11-11T17:29:11.126Z,21.95
2022-11-11T17:32:53.962Z,10.02
2022-11-11T17:36:41.432Z,13.52
2022-11-11T17:40:23.208Z,20.98
2022-11-11T17:44:05.012Z,14.63
2022-11-11T17:47:46.425Z,9.35
2022-11-11T17:51:29.157Z,15.68
2022-11-11T17:55:10.656Z,23.98
2022-11-11T17:58:52.599Z,16.42
2022-11-11T18:02:33.998Z,17.83
2022-11-11T18:06:15.481Z,9.10
2022-11-11T18:09:58.567Z,15.27
2022-11-11T18:13:40.158Z,15.85
2022-11-11T18:17:21.994Z,15.48
2022-11-11T18:21:05.675Z,14.27
2022-11-11T18:24:47.197Z,13.57
2022-11-11T18:28:34.419Z,11.75
2022-11-11T18:32:16.076Z,15.88
2022-11-11T18:35:57.473Z,12.98
2022-11-11T18:39:38.877Z,12.68
2022-11-11T18:43:20.209Z,17.75
2022-11-11T18:47:03.061Z,11.68
2022-11-11T18:50:44.500Z,11.23
2022-11-11T18:54:30.195Z,15.98
2022-11-11T18:58:12.148Z,13.70
2022-11-11T19:01:55.240Z,13.02
2022-11-11T19:05:38.342Z,9.60
2022-11-11T19:09:19.785Z,9.98
2022-11-11T19:13:02.053Z,10.40
2022-11-11T19:16:45.688Z,13.20
2022-11-11T19:20:27.511Z,11.63
2022-11-11T19:24:11.410Z,9.45
2022-11-11T19:27:54.228Z,10.43
2022-11-11T19:31:35.607Z,7.32
2022-11-11T19:35:17.300Z,10.10
2022-11-11T19:39:00.746Z,11.10
2022-11-11T19:42:43.490Z,10.35
2022-11-11T19:46:26.110Z,8.40
2022-11-11T19:50:08.267Z,9.98
2022-11-11T19:53:54.980Z,8.77
2022-11-11T19:57:38.234Z,6.97
2022-11-11T20:01:23.054Z,9.38
2022-11-11T20:05:05.720Z,9.60
2022-11-11T20:08:47.581Z,9.60
2022-11-11T20:12:29.384Z,10.77
2022-11-11T20:16:11.113Z,7.57
2022-11-11T20:19:54.013Z,9.88
2022-11-11T20:23:36.916Z,13.95
2022-11-11T20:27:18.233Z,10.93
2022-11-11T20:30:59.670Z,9.68
2022-11-11T20:34:40.881Z,9.63
2022-11-11T20:38:23.685Z,9.82
2022-11-11T20:42:05.285Z,12.95
2022-11-11T20:45:46.984Z,8.20
2022-11-11T20:49:28.451Z,7.07
2022-11-11T20:53:09.915Z,8.15
2022-11-11T20:56:52.638Z,11.07
2022-11-11T21:00:33.913Z,7.38
2022-11-11T21:04:15.208Z,8.18
2022-11-11T21:07:56.588Z,15.45
2022-11-11T21:11:38.033Z,6.80
2022-11-11T21:15:20.669Z,4.82
2022-11-11T21:19:02.261Z,10.68
2022-11-11T21:22:43.857Z,7.63
2022-11-11T21:26:25.515Z,6.68
2022-11-11T21:30:07.859Z,7.45
2022-11-11T21:33:55.303Z,5.35
2022-11-11T21:37:36.574Z,7.18
2022-11-11T21:41:19.482Z,9.02
2022-11-11T21:45:01.150Z,8.18
2022-11-11T21:48:42.648Z,8.90
2022-11-11T21:52:25.528Z,6.10
2022-11-11T21:56:10.189Z,8.80
2022-11-11T21:59:51.788Z,4.70
2022-11-11T22:03:33.651Z,5.38
2022-11-11T22:07:18.914Z,5.32
2022-11-11T22:11:07.831Z,3.78
2022-11-11T22:14:52.869Z,9.25
2022-11-11T22:18:34.512Z,4.00
2022-11-11T22:22:16.278Z,7.57
2022-11-11T22:26:01.273Z,5.15
2022-11-11T22:29:44.243Z,8.27
2022-11-11T22:33:25.664Z,8.98
2022-11-11T22:37:06.955Z,5.93
2022-11-11T22:40:48.356Z,4.70
2022-11-11T22:44:29.703Z,5.40
2022-11-11T22:48:12.599Z,3.90
2022-11-11T22:51:53.939Z,7.07
2022-11-11T22:55:35.342Z,5.43
2022-11-11T22:59:16.728Z,5.18
2022-11-11T23:02:59.317Z,7.13
2022-11-11T23:06:42.394Z,3.40
2022-11-11T23:10:23.742Z,7.00
2022-11-11T23:14:06.899Z,6.53
2022-11-11T23:17:48.472Z,5.65
2022-11-11T23:21:30.069Z,9.00
2022-11-11T23:25:13.288Z,6.13
2022-11-11T23:28:54.911Z,4.15
2022-11-11T23:32:36.366Z,6.50
2022-11-11T23:36:19.960Z,8.93
2022-11-11T23:40:01.773Z,4.43
2022-11-11T23:43:44.737Z,7.72
2022-11-11T23:47:26.450Z,4.47
2022-11-11T23:51:08.119Z,5.88
2022-11-11T23:54:49.512Z,5.95
2022-11-11T23:58:30.903Z,3.17
